Nilwood, Illinois
Current Conditions -  °F | °C
As of 12:55 AM on Friday 31 Oct 2014 (Local Time) from K3LF Reporting Station
Scattered Clouds Scattered Clouds  
Wind Chill: 46°   Ceiling: Unl
Heat Index: 46°   Visibility: 10mi
Dew Point: 42°   Wind: 3mph
Humidity: 87%   Direction: 80°E
Pressure: 30.05"   Gusts: NA
Location:  39.4°N, 89.81°W
Report Text: K3LF 310555Z AUTO 08003KT 10SM SCT040 SCT120 08/06 A3005 RMK AO2 T00760056
Loading
Personal Weather Stations






























Interactive Weather Map
Tropical Storm Tracking
New forecast layout! Learn more

10-Day Weather Forecast

Advertisements
Track Severe Weather on mobile